Troitsko-Pechorsk, Russia
Current Conditions -  °F | °C
As of 12:30 AM on Saturday 25 Oct 2014 (Local Time) from UUYY Reporting Station
Overcast Overcast  
Wind Chill: 12°   Ceiling: 6600
Heat Index: 23°   Visibility: 6mi
Dew Point: 14°   Wind: 11mph
Humidity: 68%   Direction: 350°N
Pressure: 30.33"   Gusts: 20mph
Location:  62.7°N, 56.2°E
Report Text: UUYY 242130Z 35005G09MPS 9999 SCT021CB OVC066 M05/M10 Q1027 TEMPO 2000 SHSN 0182//49 RMK QFE761/1014
Loading
Personal Weather Stations






























Interactive Weather Map
Tropical Storm Tracking
New forecast layout! Learn more

10-Day Weather Forecast

Advertisements
Track Severe Weather on mobile